Time;durP1;ratioP1;P1;durP2;ratioP2;P2;SDS_P1;SDS_P2;PMS_P1;PMS_P2;Temp;Humidity;BMP_temperature;BMP_pressure;BME280_temperature;BME280_humidity;BME280_pressure;Samples;Min_cycle;Max_cycle;Signal;HPM_P1;HPM_P2
2021/09/11 00:01:00;;;;;;;7.20;6.47;;;;;;;16.00;100.00;100656.06;4976508;28;20041;-79
2021/09/11 00:03:27;;;;;;;7.97;6.75;;;;;;;15.99;100.00;100657.00;4994061;28;20041;-79
2021/09/11 00:05:54;;;;;;;9.13;6.97;;;;;;;15.94;100.00;100650.97;4992912;28;20053;-81
2021/09/11 00:08:21;;;;;;;7.43;6.60;;;;;;;15.90;100.00;100652.06;5002616;28;20053;-79
2021/09/11 00:10:47;;;;;;;9.05;7.32;;;;;;;15.88;100.00;100656.56;4991570;28;20045;-79
2021/09/11 00:13:17;;;;;;;9.27;7.55;;;;;;;15.83;100.00;100663.91;5005750;28;20041;-80
2021/09/11 00:15:43;;;;;;;9.82;7.43;;;;;;;15.82;100.00;100660.38;5009177;28;20058;-79
2021/09/11 00:18:10;;;;;;;9.55;7.40;;;;;;;15.76;100.00;100665.94;5025508;28;20380;-79
2021/09/11 00:20:36;;;;;;;8.98;6.93;;;;;;;15.83;100.00;100658.56;4993708;28;20041;-79
2021/09/11 00:23:08;;;;;;;9.13;7.28;;;;;;;15.80;100.00;100661.34;5006845;28;20114;-82
2021/09/11 00:25:36;;;;;;;8.93;6.70;;;;;;;15.73;100.00;100672.28;5010049;28;20452;-80
2021/09/11 00:28:03;;;;;;;8.80;7.60;;;;;;;15.73;100.00;100664.28;4993216;28;20045;-79
2021/09/11 00:30:31;;;;;;;8.98;7.72;;;;;;;15.66;100.00;100662.81;5014526;28;20073;-81
2021/09/11 00:32:58;;;;;;;8.70;7.72;;;;;;;15.57;100.00;100660.50;4976414;28;20045;-79
2021/09/11 00:35:25;;;;;;;8.07;7.28;;;;;;;15.58;100.00;100664.88;5004584;28;20049;-81
2021/09/11 00:37:51;;;;;;;10.77;8.50;;;;;;;15.59;100.00;100652.44;5020124;28;20045;-80
2021/09/11 00:40:18;;;;;;;10.18;7.82;;;;;;;15.53;100.00;100665.97;4999344;28;20045;-80
2021/09/11 00:42:48;;;;;;;7.93;6.95;;;;;;;15.58;100.00;100667.53;4993103;28;20045;-79
2021/09/11 00:45:21;;;;;;;8.40;7.45;;;;;;;15.50;100.00;100661.66;5018516;28;20139;-80
2021/09/11 00:47:48;;;;;;;8.73;7.40;;;;;;;15.40;100.00;100676.28;4980980;28;20045;-82
2021/09/11 00:50:16;;;;;;;8.50;7.18;;;;;;;15.34;100.00;100671.19;5003693;28;20092;-80
2021/09/11 00:52:44;;;;;;;7.95;6.88;;;;;;;15.32;100.00;100665.94;5008957;28;20033;-80
2021/09/11 00:55:12;;;;;;;9.35;7.70;;;;;;;15.36;100.00;100664.00;5002750;28;20053;-80
2021/09/11 00:57:46;;;;;;;9.73;7.40;;;;;;;15.29;100.00;100679.34;5010249;28;20137;-79
2021/09/11 01:00:13;;;;;;;11.27;8.32;;;;;;;15.27;100.00;100664.38;4997881;28;20046;-79
2021/09/11 01:02:41;;;;;;;8.68;7.00;;;;;;;15.29;100.00;100670.50;5026358;28;20041;-80
2021/09/11 01:05:09;;;;;;;8.10;7.30;;;;;;;15.26;100.00;100673.28;4995893;28;20145;-81
2021/09/11 01:07:38;;;;;;;8.15;6.60;;;;;;;15.19;100.00;100677.97;5014700;28;20048;-80
2021/09/11 01:10:05;;;;;;;9.10;7.00;;;;;;;15.19;100.00;100677.97;5011015;28;20095;-80
2021/09/11 01:12:32;;;;;;;10.30;8.00;;;;;;;15.21;100.00;100679.66;5011684;28;20044;-79
2021/09/11 01:15:04;;;;;;;8.32;6.70;;;;;;;15.14;100.00;100670.19;5018563;28;20033;-78
2021/09/11 01:17:30;;;;;;;7.57;6.47;;;;;;;15.08;100.00;100683.72;5004609;28;20056;-80
2021/09/11 01:19:57;;;;;;;8.00;6.85;;;;;;;15.03;100.00;100682.16;5008548;28;20049;-79
2021/09/11 01:22:24;;;;;;;8.20;7.25;;;;;;;14.98;100.00;100682.34;5005031;28;20033;-79
2021/09/11 01:24:56;;;;;;;8.77;7.20;;;;;;;15.00;100.00;100675.19;4995433;28;20045;-79
2021/09/11 01:27:23;;;;;;;8.38;7.47;;;;;;;15.05;100.00;100677.63;5010724;28;20096;-81
2021/09/11 01:29:55;;;;;;;9.00;6.95;;;;;;;15.03;100.00;100691.00;4999363;28;20127;-80
2021/09/11 01:32:22;;;;;;;8.75;7.28;;;;;;;14.91;100.00;100683.50;5012075;28;20042;-79
2021/09/11 01:34:50;;;;;;;8.57;7.15;;;;;;;14.89;100.00;100680.06;5028110;28;20065;-79
2021/09/11 01:37:18;;;;;;;10.95;6.63;;;;;;;14.85;100.00;100683.72;5003321;28;20437;-80
2021/09/11 01:39:49;;;;;;;7.93;6.50;;;;;;;14.83;100.00;100688.25;4993240;28;20189;-79
2021/09/11 01:42:23;;;;;;;9.77;7.10;;;;;;;14.86;100.00;100689.00;5008545;28;20418;-79
2021/09/11 01:44:53;;;;;;;7.00;6.13;;;;;;;14.87;100.00;100679.22;5010316;28;20049;-80
2021/09/11 01:47:23;;;;;;;7.75;6.55;;;;;;;14.86;100.00;100685.47;5004371;28;20037;-79
2021/09/11 01:49:50;;;;;;;9.98;7.88;;;;;;;14.78;100.00;100683.09;4991053;28;20061;-79
2021/09/11 01:52:16;;;;;;;9.05;6.85;;;;;;;14.73;100.00;100684.22;4994128;28;20042;-79
2021/09/11 01:54:43;;;;;;;7.65;6.50;;;;;;;14.71;100.00;100673.59;5008451;28;20084;-79
2021/09/11 01:57:11;;;;;;;9.38;7.25;;;;;;;14.75;100.00;100675.25;4987253;28;20111;-79
2021/09/11 01:59:39;;;;;;;8.82;6.60;;;;;;;14.72;100.00;100680.69;5037774;22;20417;-79
2021/09/11 02:02:07;;;;;;;8.20;6.30;;;;;;;14.63;100.00;100679.22;5010282;28;20573;-78
2021/09/11 02:04:35;;;;;;;7.57;6.70;;;;;;;14.61;100.00;100681.06;5016554;28;20038;-78
2021/09/11 02:07:02;;;;;;;7.85;7.00;;;;;;;14.62;100.00;100681.91;5021722;28;20041;-80
2021/09/11 02:09:29;;;;;;;8.32;7.03;;;;;;;14.61;100.00;100681.06;5021632;28;20045;-80
2021/09/11 02:11:56;;;;;;;8.02;6.45;;;;;;;14.55;100.00;100680.44;4988296;28;20539;-79
2021/09/11 02:14:23;;;;;;;6.72;6.03;;;;;;;14.54;100.00;100681.34;5007453;28;20042;-77
2021/09/11 02:16:50;;;;;;;7.40;6.45;;;;;;;14.50;100.00;100682.38;5010704;28;20053;-79
2021/09/11 02:19:17;;;;;;;9.48;6.80;;;;;;;14.51;100.00;100674.34;5006394;28;20046;-78
2021/09/11 02:21:44;;;;;;;8.77;6.88;;;;;;;14.53;100.00;100676.94;5005397;28;20033;-80
2021/09/11 02:24:10;;;;;;;8.20;6.72;;;;;;;14.52;100.00;100681.41;5027450;28;20035;-79
2021/09/11 02:26:37;;;;;;;9.45;7.18;;;;;;;14.48;100.00;100678.91;4993510;28;20046;-79
2021/09/11 02:29:04;;;;;;;10.18;7.45;;;;;;;14.49;100.00;100683.31;5015813;28;20042;-79
2021/09/11 02:31:31;;;;;;;8.70;7.47;;;;;;;14.45;100.00;100690.50;5024857;28;20041;-80
2021/09/11 02:33:58;;;;;;;8.55;6.93;;;;;;;14.43;100.00;100689.66;5020948;28;20145;-79
2021/09/11 02:36:25;;;;;;;8.00;6.45;;;;;;;14.44;100.00;100690.53;5007127;28;20077;-78
2021/09/11 02:38:51;;;;;;;7.07;6.35;;;;;;;14.43;100.00;100684.34;5006761;28;20054;-78
2021/09/11 02:41:19;;;;;;;8.68;7.13;;;;;;;14.43;100.00;100691.47;5012271;28;20407;-80
2021/09/11 02:43:46;;;;;;;9.05;7.10;;;;;;;14.41;100.00;100686.22;5012127;28;20045;-79
2021/09/11 02:46:12;;;;;;;8.88;6.78;;;;;;;14.39;100.00;100689.84;4994741;28;20033;-79
2021/09/11 02:48:39;;;;;;;8.45;6.63;;;;;;;14.37;100.00;100682.78;5008240;28;20042;-78
2021/09/11 02:51:06;;;;;;;8.55;7.38;;;;;;;14.35;100.00;100673.13;5010659;28;20042;-81
2021/09/11 02:53:33;;;;;;;7.82;6.63;;;;;;;14.35;100.00;100684.63;5024553;28;20041;-81
2021/09/11 02:55:59;;;;;;;8.93;6.93;;;;;;;14.40;100.00;100681.81;5009261;28;20045;-80
2021/09/11 02:58:26;;;;;;;8.05;7.22;;;;;;;14.41;100.00;100686.22;5004556;28;21454;-80
2021/09/11 03:00:53;;;;;;;7.78;6.85;;;;;;;14.39;100.00;100680.09;5008125;28;20060;-81
2021/09/11 03:03:20;;;;;;;8.85;7.10;;;;;;;14.41;100.00;100682.69;5013943;28;20495;-80
2021/09/11 03:05:47;;;;;;;9.52;7.95;;;;;;;14.44;100.00;100687.88;5009320;28;20046;-80
2021/09/11 03:08:14;;;;;;;9.32;7.80;;;;;;;14.49;100.00;100685.97;5010788;28;20045;-81
2021/09/11 03:10:45;;;;;;;9.32;7.75;;;;;;;14.53;100.00;100693.75;4995878;28;20056;-78
2021/09/11 03:13:12;;;;;;;9.68;7.95;;;;;;;14.52;100.00;100697.34;5011972;28;20038;-79
2021/09/11 03:15:38;;;;;;;7.75;7.03;;;;;;;14.54;100.00;100690.19;4991202;28;20092;-80
2021/09/11 03:18:05;;;;;;;9.18;7.35;;;;;;;14.57;100.00;100690.09;5007802;28;20037;-82
2021/09/11 03:20:32;;;;;;;10.55;8.38;;;;;;;14.64;100.00;100696.91;5024151;28;20533;-77
2021/09/11 03:22:58;;;;;;;11.10;8.40;;;;;;;14.69;100.00;100698.53;5003406;28;20097;-80
2021/09/11 03:25:25;;;;;;;10.77;8.82;;;;;;;14.82;100.00;100699.81;5009578;28;20042;-81
2021/09/11 03:27:51;;;;;;;13.93;8.82;;;;;;;14.77;100.00;100699.97;5006897;28;20080;-80
2021/09/11 03:30:18;;;;;;;14.27;8.95;;;;;;;14.75;100.00;100693.00;4994121;28;20054;-80
2021/09/11 03:32:45;;;;;;;17.08;12.10;;;;;;;14.70;100.00;100697.59;5024053;28;20038;-80
2021/09/11 03:35:12;;;;;;;14.63;9.63;;;;;;;14.73;100.00;100690.41;4993096;28;20491;-80
2021/09/11 03:37:39;;;;;;;11.98;8.77;;;;;;;14.76;100.00;100684.09;4998501;28;20519;-80
2021/09/11 03:40:06;;;;;;;11.02;7.60;;;;;;;14.76;100.00;100689.41;5008292;28;20049;-81
2021/09/11 03:42:33;;;;;;;9.50;7.82;;;;;;;14.77;100.00;100686.69;5004998;28;20041;-80
2021/09/11 03:44:59;;;;;;;10.80;7.78;;;;;;;14.77;100.00;100684.03;4977520;28;20046;-80
2021/09/11 03:47:28;;;;;;;11.50;8.55;;;;;;;14.77;100.00;100683.16;4992048;28;20084;-80
2021/09/11 03:49:54;;;;;;;10.40;8.77;;;;;;;14.80;100.00;100680.41;5007473;28;20053;-81
2021/09/11 03:52:21;;;;;;;11.82;8.10;;;;;;;14.79;100.00;100681.28;5017499;28;20034;-81
2021/09/11 03:54:47;;;;;;;11.68;9.15;;;;;;;14.79;100.00;100681.28;5001956;28;20061;-81
2021/09/11 03:57:14;;;;;;;13.27;8.88;;;;;;;14.77;100.00;100685.81;5008315;28;20053;-79
2021/09/11 03:59:41;;;;;;;9.98;8.43;;;;;;;14.79;100.00;100678.63;5006197;28;21704;-79
2021/09/11 04:02:07;;;;;;;12.25;9.18;;;;;;;14.83;100.00;100678.47;5005949;28;20041;-80
2021/09/11 04:04:34;;;;;;;12.50;9.57;;;;;;;14.85;100.00;100684.59;5003908;28;20050;-81
2021/09/11 04:07:01;;;;;;;13.02;9.40;;;;;;;14.89;100.00;100688.03;5000799;28;20931;-80
2021/09/11 04:09:28;;;;;;;12.98;9.75;;;;;;;14.86;100.00;100680.16;5006173;28;20124;-80
2021/09/11 04:11:55;;;;;;;17.83;12.82;;;;;;;14.94;100.00;100686.03;4987836;28;20046;-80
2021/09/11 04:14:21;;;;;;;17.55;11.50;;;;;;;14.94;100.00;100686.03;5019772;28;20046;-80
2021/09/11 04:16:48;;;;;;;17.88;11.13;;;;;;;14.92;100.00;100675.47;4988967;28;20111;-79
2021/09/11 04:19:17;;;;;;;18.27;12.90;;;;;;;14.96;100.00;100686.84;4993424;28;20046;-80
2021/09/11 04:21:44;;;;;;;21.00;13.65;;;;;;;14.96;100.00;100676.19;5004856;28;20046;-81
2021/09/11 04:24:11;;;;;;;16.83;11.57;;;;;;;14.97;100.00;100675.31;5010065;28;20042;-81
2021/09/11 04:26:38;;;;;;;16.98;11.32;;;;;;;14.97;100.00;100683.28;5010057;28;20046;-80
2021/09/11 04:29:04;;;;;;;17.33;12.32;;;;;;;14.97;100.00;100687.75;5014675;28;20148;-80
2021/09/11 04:31:31;;;;;;;19.52;13.15;;;;;;;15.00;100.00;100683.16;5001934;28;20049;-80
2021/09/11 04:33:58;;;;;;;18.25;12.02;;;;;;;15.03;100.00;100690.16;5002484;28;20042;-80
2021/09/11 04:36:25;;;;;;;16.85;11.65;;;;;;;15.04;100.00;100692.75;5002334;28;20046;-80
2021/09/11 04:38:51;;;;;;;20.98;13.50;;;;;;;15.05;100.00;100691.84;5000932;28;20739;-80
2021/09/11 04:41:18;;;;;;;19.08;13.18;;;;;;;15.06;100.00;100690.91;5000498;28;20416;-80
2021/09/11 04:43:45;;;;;;;17.85;11.95;;;;;;;15.09;100.00;100705.88;5003866;28;20030;-81
2021/09/11 04:46:11;;;;;;;17.58;13.23;;;;;;;15.09;100.00;100696.09;5002226;28;20050;-82
2021/09/11 04:48:38;;;;;;;17.92;12.20;;;;;;;15.17;100.00;100701.13;5002307;28;20057;-81
2021/09/11 04:51:05;;;;;;;16.35;11.75;;;;;;;15.17;100.00;100703.78;4987632;28;20065;-81
2021/09/11 04:53:32;;;;;;;15.73;11.88;;;;;;;15.20;100.00;100701.88;5001957;28;20042;-80
2021/09/11 04:55:58;;;;;;;17.17;11.68;;;;;;;15.25;100.00;100692.84;4986105;28;20045;-80
2021/09/11 04:58:25;;;;;;;16.73;11.98;;;;;;;15.31;100.00;100692.63;4999692;28;20084;-81
2021/09/11 05:00:52;;;;;;;16.08;11.85;;;;;;;15.37;100.00;100703.00;5009216;28;20083;-81
2021/09/11 05:03:19;;;;;;;19.75;14.38;;;;;;;15.42;100.00;100701.03;5004336;28;20035;-80
2021/09/11 05:05:46;;;;;;;16.60;11.60;;;;;;;15.43;100.00;100703.63;5006992;28;20069;-81
2021/09/11 05:08:17;;;;;;;15.75;11.68;;;;;;;15.47;100.00;100704.41;4988647;28;20049;-81
2021/09/11 05:10:45;;;;;;;18.23;13.40;;;;;;;15.52;100.00;100702.41;5007143;28;20049;-80
2021/09/11 05:13:13;;;;;;;18.00;13.43;;;;;;;15.58;100.00;100701.28;5007805;28;20130;-80
2021/09/11 05:15:40;;;;;;;17.55;13.77;;;;;;;15.70;100.00;100711.47;5007446;28;20041;-81
2021/09/11 05:18:06;;;;;;;18.92;14.23;;;;;;;15.72;100.00;100714.94;5014851;28;20049;-81
2021/09/11 05:20:33;;;;;;;13.82;11.30;;;;;;;15.76;100.00;100716.56;4987493;28;20097;-79
2021/09/11 05:23:00;;;;;;;17.33;12.50;;;;;;;15.84;100.00;100721.56;5006451;28;20070;-81
2021/09/11 05:25:27;;;;;;;15.35;11.40;;;;;;;15.90;100.00;100721.31;5009136;28;20073;-81
2021/09/11 05:27:54;;;;;;;14.35;11.88;;;;;;;15.96;100.00;100726.38;5009069;28;20069;-80
2021/09/11 05:30:21;;;;;;;17.70;13.93;;;;;;;16.07;100.00;100732.16;4994200;28;20052;-81
2021/09/11 05:32:47;;;;;;;15.75;12.57;;;;;;;16.15;100.00;100730.03;4978924;28;20046;-80
2021/09/11 05:35:15;;;;;;;18.50;14.45;;;;;;;16.26;100.00;100726.91;5012335;28;20164;-80
2021/09/11 05:37:41;;;;;;;22.73;16.65;;;;;;;16.40;100.00;100732.50;5011878;28;20041;-81
2021/09/11 05:40:09;;;;;;;22.05;15.85;;;;;;;16.43;100.00;100739.50;5008265;28;20046;-80
2021/09/11 05:42:36;;;;;;;24.25;16.80;;;;;;;16.54;100.00;100734.56;5010805;28;20045;-81
2021/09/11 05:45:07;;;;;;;23.90;17.35;;;;;;;16.59;100.00;100735.22;4995488;28;20046;-81
2021/09/11 05:47:34;;;;;;;22.58;16.98;;;;;;;16.64;100.00;100725.22;5009473;28;20050;-82
2021/09/11 05:50:01;;;;;;;22.02;16.45;;;;;;;16.71;100.00;100724.03;5011085;28;20045;-80
2021/09/11 05:52:27;;;;;;;19.25;13.63;;;;;;;16.78;100.00;100725.50;5008911;28;20065;-80
2021/09/11 05:54:54;;;;;;;19.80;14.48;;;;;;;16.83;100.00;100728.84;4977203;28;20050;-80
2021/09/11 05:57:24;;;;;;;20.38;14.95;;;;;;;16.89;100.00;100736.53;5011168;28;20072;-81
2021/09/11 05:59:51;;;;;;;24.92;16.77;;;;;;;16.97;100.00;100740.66;5012848;28;20065;-79
2021/09/11 06:02:18;;;;;;;20.30;14.70;;;;;;;16.99;100.00;100738.81;4994216;28;20053;-81
2021/09/11 06:04:45;;;;;;;22.33;17.42;;;;;;;17.07;100.00;100745.53;5011929;28;20052;-79
2021/09/11 06:07:12;;;;;;;21.65;16.48;;;;;;;17.09;100.00;100750.81;5010205;28;20112;-81
2021/09/11 06:09:39;;;;;;;23.75;16.25;;;;;;;17.09;100.00;100753.47;5026761;28;20042;-79
2021/09/11 06:12:10;;;;;;;24.05;18.48;;;;;;;17.16;100.00;100758.47;4992356;28;20109;-80
2021/09/11 06:14:37;;;;;;;26.48;19.50;;;;;;;17.17;100.00;100767.34;5027762;28;20045;-80
2021/09/11 06:17:05;;;;;;;23.50;16.73;;;;;;;17.18;100.00;100758.38;4995485;28;20084;-84
2021/09/11 06:19:32;;;;;;;23.40;17.48;;;;;;;17.21;100.00;100760.91;5013881;28;20049;-81
2021/09/11 06:22:00;;;;;;;28.77;20.35;;;;;;;17.27;100.00;100760.63;5011499;28;20058;-82
2021/09/11 06:24:26;;;;;;;24.33;17.38;;;;;;;17.28;100.00;100773.03;5012844;28;20495;-82
2021/09/11 06:26:53;;;;;;;22.35;16.75;;;;;;;17.29;100.00;100769.41;4987777;28;20050;-81
2021/09/11 06:29:21;;;;;;;22.73;16.35;;;;;;;17.32;100.00;100776.41;4994379;28;20491;-82
2021/09/11 06:31:48;;;;;;;20.42;16.33;;;;;;;17.35;100.00;100774.50;4992507;28;20054;-82
2021/09/11 06:34:14;;;;;;;23.10;17.38;;;;;;;17.37;100.00;100775.28;5009699;28;20033;-80
2021/09/11 06:36:41;;;;;;;24.15;17.83;;;;;;;17.47;100.00;100780.19;5012750;28;20084;-80
2021/09/11 06:39:08;;;;;;;23.13;17.90;;;;;;;17.50;100.00;100780.06;4985130;28;20433;-84
2021/09/11 06:41:37;;;;;;;21.08;15.60;;;;;;;17.58;100.00;100776.09;5009870;28;20042;-82
2021/09/11 06:44:04;;;;;;;26.00;18.65;;;;;;;17.63;100.00;100783.88;5010087;28;20092;-82
2021/09/11 06:46:31;;;;;;;23.42;17.52;;;;;;;17.73;100.00;100780.69;4995417;28;20034;-80
2021/09/11 06:48:58;;;;;;;21.63;16.75;;;;;;;17.95;100.00;100783.22;5008695;28;20045;-80
2021/09/11 06:51:25;;;;;;;23.13;16.90;;;;;;;17.96;100.00;100779.59;5010882;28;20049;-80
2021/09/11 06:53:53;;;;;;;17.98;14.57;;;;;;;18.03;100.00;100781.97;5006913;28;20518;-80
2021/09/11 06:56:20;;;;;;;22.70;17.42;;;;;;;18.11;100.00;100779.78;4994520;28;20041;-80
2021/09/11 06:58:46;;;;;;;24.10;17.30;;;;;;;18.18;100.00;100782.09;5028453;28;20304;-82
2021/09/11 07:01:13;;;;;;;21.33;16.25;;;;;;;18.21;100.00;100786.41;4995965;28;20527;-80
2021/09/11 07:03:45;;;;;;;20.92;15.75;;;;;;;18.21;100.00;100789.06;5007192;28;20515;-82
2021/09/11 07:06:13;;;;;;;19.60;15.95;;;;;;;18.21;100.00;100783.72;5003206;28;20052;-80
2021/09/11 07:08:40;;;;;;;18.13;14.48;;;;;;;18.22;100.00;100793.47;5025129;28;20124;-80
2021/09/11 07:11:14;;;;;;;21.15;15.38;;;;;;;18.25;100.00;100788.84;5011329;28;20132;-80
2021/09/11 07:13:41;;;;;;;17.00;14.07;;;;;;;18.25;100.00;100790.66;4992937;28;20045;-81
2021/09/11 07:16:08;;;;;;;19.00;14.85;;;;;;;18.32;100.00;100789.38;5011615;28;20048;-81
2021/09/11 07:18:35;;;;;;;19.13;14.57;;;;;;;18.30;100.00;100793.97;4997744;28;20038;-82
2021/09/11 07:21:02;;;;;;;16.73;12.63;;;;;;;18.28;100.00;100798.53;5010211;28;20046;-80
2021/09/11 07:23:29;;;;;;;18.80;14.90;;;;;;;18.32;100.00;100805.44;4991964;28;20031;-82
2021/09/11 07:25:55;;;;;;;19.08;15.77;;;;;;;18.39;100.00;100806.88;5000059;28;20046;-80
2021/09/11 07:28:22;;;;;;;19.05;16.10;;;;;;;18.35;100.00;100807.13;4991887;28;20096;-80
2021/09/11 07:30:49;;;;;;;19.75;15.57;;;;;;;18.41;100.00;100813.00;5008610;28;20045;-80
2021/09/11 07:33:16;;;;;;;20.35;15.77;;;;;;;18.53;100.00;100807.03;4991709;28;20510;-81
2021/09/11 07:35:43;;;;;;;20.40;16.27;;;;;;;18.67;100.00;100811.72;4990068;28;20042;-81
2021/09/11 07:38:11;;;;;;;19.60;15.50;;;;;;;18.60;100.00;100814.75;5019604;28;20064;-81
2021/09/11 07:40:38;;;;;;;18.20;14.70;;;;;;;18.56;100.00;100814.91;5010139;28;20041;-82
2021/09/11 07:43:05;;;;;;;18.60;13.20;;;;;;;18.56;100.00;100812.22;5014146;28;20038;-80
2021/09/11 07:45:31;;;;;;;19.90;14.63;;;;;;;18.61;100.00;100809.31;5009719;28;20069;-83
2021/09/11 07:47:58;;;;;;;18.60;14.77;;;;;;;18.62;100.00;100815.53;4995073;28;20050;-83
2021/09/11 07:50:28;;;;;;;21.65;16.17;;;;;;;18.75;100.00;100809.53;4997976;28;20042;-82
2021/09/11 07:52:55;;;;;;;19.05;14.70;;;;;;;18.82;100.00;100815.41;5007784;28;20073;-79
2021/09/11 07:55:22;;;;;;;16.67;14.38;;;;;;;18.75;100.00;100819.34;5023013;28;20050;-82
2021/09/11 07:57:49;;;;;;;20.33;14.68;;;;;;;18.87;100.00;100828.56;5004181;28;20116;-80
2021/09/11 08:00:18;;;;;;;19.13;14.93;;;;;;;18.95;100.00;100824.53;5023062;28;20777;-82
2021/09/11 08:02:45;;;;;;;22.13;15.38;;;;;;;19.01;100.00;100821.53;5004751;28;20046;-80
2021/09/11 08:05:13;;;;;;;16.30;12.32;;;;;;;18.94;100.00;100819.25;5006696;28;20041;-83
2021/09/11 08:07:40;;;;;;;18.85;15.23;;;;;;;18.99;100.00;100826.09;5008311;28;20712;-81
2021/09/11 08:10:08;;;;;;;18.63;15.45;;;;;;;19.22;100.00;100826.69;4991958;28;20065;-81
2021/09/11 08:12:35;;;;;;;19.10;15.15;;;;;;;19.16;100.00;100829.69;5004009;28;20090;-81
2021/09/11 08:15:03;;;;;;;19.40;14.60;;;;;;;19.10;100.00;100829.09;5014974;22;20057;-80
2021/09/11 08:17:30;;;;;;;22.48;16.33;;;;;;;19.14;100.00;100832.44;4988436;28;20068;-80
2021/09/11 08:19:57;;;;;;;18.23;14.85;;;;;;;19.13;100.00;100831.59;4990114;28;20037;-79
2021/09/11 08:22:23;;;;;;;19.23;14.38;;;;;;;19.11;100.00;100833.50;5005374;28;20134;-79
2021/09/11 08:24:51;;;;;;;25.75;16.95;;;;;;;19.13;100.00;100833.41;5007342;28;20039;-81
2021/09/11 08:27:17;;;;;;;19.45;15.82;;;;;;;19.12;100.00;100839.72;5007361;28;20092;-80
2021/09/11 08:29:44;;;;;;;21.13;15.02;;;;;;;19.08;100.00;100844.34;5006995;28;20111;-80
2021/09/11 08:32:12;;;;;;;18.23;14.00;;;;;;;19.05;100.00;100838.28;4989022;28;20991;-79
2021/09/11 08:34:45;;;;;;;20.92;16.20;;;;;;;19.12;100.00;100843.25;4994285;28;20038;-82
2021/09/11 08:37:20;;;;;;;26.23;17.38;;;;;;;19.24;100.00;100851.56;5012814;28;20096;-82
2021/09/11 08:39:51;;;;;;;24.55;17.05;;;;;;;19.22;100.00;100846.28;5004878;28;20438;-83
2021/09/11 08:42:20;;;;;;;19.58;15.98;;;;;;;19.19;100.00;100846.47;4987086;28;20113;-81
2021/09/11 08:44:47;;;;;;;20.73;15.73;;;;;;;19.12;100.00;100853.09;5007903;28;20056;-79
2021/09/11 08:47:15;;;;;;;21.73;16.67;;;;;;;19.22;100.00;100850.78;4989515;28;20050;-79
2021/09/11 08:49:41;;;;;;;28.02;17.50;;;;;;;19.30;100.00;100856.59;4992383;28;20446;-79
2021/09/11 08:52:08;;;;;;;25.05;17.30;;;;;;;19.38;100.00;100859.75;4989093;28;20054;-80
2021/09/11 08:54:36;;;;;;;24.02;16.38;;;;;;;19.33;100.00;100859.09;4991761;28;20038;-79
2021/09/11 08:57:17;;;;;;;19.63;15.05;;;;;;;19.37;100.00;100866.91;5003168;28;20078;-79
2021/09/11 08:59:45;;;;;;;20.48;16.27;;;;;;;19.41;100.00;100865.78;5004263;28;20041;-79
2021/09/11 09:02:11;;;;;;;22.42;16.88;;;;;;;19.51;100.00;100870.69;5022086;28;20085;-79
2021/09/11 09:04:59;;;;;;;23.08;18.02;;;;;;;19.57;100.00;100873.03;4992314;28;20391;-82
2021/09/11 09:07:38;;;;;;;18.70;13.55;;;;;;;19.66;100.00;100867.16;4993797;28;20050;-81
2021/09/11 09:10:10;;;;;;;30.80;16.80;;;;;;;19.76;100.00;100871.09;4973662;28;20534;-80
2021/09/11 09:12:42;;;;;;;19.83;15.57;;;;;;;19.83;100.00;100879.63;5009192;28;20455;-79
2021/09/11 09:15:20;;;;;;;19.30;15.13;;;;;;;19.90;100.00;100873.00;5007916;28;20483;-80
2021/09/11 09:17:55;;;;;;;16.42;13.48;;;;;;;19.90;100.00;100873.00;5013961;28;20057;-80
2021/09/11 09:20:27;;;;;;;19.75;14.30;;;;;;;19.93;100.00;100875.53;5004705;28;20049;-80
2021/09/11 09:23:00;;;;;;;17.40;13.98;;;;;;;20.12;100.00;100875.34;5006751;28;20731;-78
2021/09/11 09:25:32;;;;;;;13.57;11.23;;;;;;;20.06;100.00;100870.31;5025807;28;20038;-80
2021/09/11 09:28:01;;;;;;;13.00;9.98;;;;;;;20.11;100.00;100879.84;4975474;28;20076;-79
2021/09/11 09:30:45;;;;;;;13.48;11.52;;;;;;;20.21;100.00;100875.69;5005844;28;20054;-79
2021/09/11 09:33:26;;;;;;;;;;;;;;;20.32;100.00;100875.06;5004501;28;20054;-80
2021/09/11 09:35:59;;;;;;;14.43;10.98;;;;;;;20.29;100.00;100877.06;5008490;28;19928;-80
2021/09/11 09:38:27;;;;;;;12.02;10.50;;;;;;;20.32;100.00;100869.69;5005671;28;20034;-79
2021/09/11 09:40:54;;;;;;;11.30;10.10;;;;;;;20.24;100.00;100875.50;4982670;28;20077;-78
2021/09/11 09:43:42;;;;;;;12.75;10.43;;;;;;;20.37;100.00;100875.69;5004843;28;20568;-79
2021/09/11 09:46:16;;;;;;;11.07;9.20;;;;;;;20.17;100.00;100866.06;4982394;28;20538;-78
2021/09/11 09:48:46;;;;;;;11.05;9.38;;;;;;;20.20;100.00;100879.31;5003684;28;20686;-79
2021/09/11 09:51:20;;;;;;;10.55;8.82;;;;;;;20.22;100.00;100877.41;5004036;28;20090;-79
2021/09/11 09:53:50;;;;;;;10.93;9.82;;;;;;;20.21;100.00;100874.81;4985252;28;20589;-81
2021/09/11 09:56:18;;;;;;;11.55;9.85;;;;;;;20.20;100.00;100871.28;5011205;28;20048;-80
2021/09/11 09:58:45;;;;;;;12.27;9.70;;;;;;;20.25;100.00;100879.03;4990832;28;20101;-79
2021/09/11 10:01:12;;;;;;;11.32;9.18;;;;;;;20.23;100.00;100867.53;5018715;28;20468;-79
2021/09/11 10:03:39;;;;;;;12.70;11.10;;;;;;;20.43;100.00;100861.94;5004945;28;20060;-78
2021/09/11 10:06:31;;;;;;;11.23;9.90;;;;;;;20.49;100.00;100863.38;5005894;28;20116;-80
2021/09/11 10:09:06;;;;;;;11.93;9.02;;;;;;;20.60;100.00;100866.31;4989844;28;20807;-79
2021/09/11 10:11:42;;;;;;;10.43;9.43;;;;;;;20.72;100.00;100862.03;4991004;28;20037;-80
2021/09/11 10:14:13;;;;;;;12.68;9.40;;;;;;;20.98;100.00;100857.78;4990046;28;20096;-82
2021/09/11 10:16:43;;;;;;;11.02;8.48;;;;;;;21.16;100.00;100862.03;4989521;28;20057;-81
2021/09/11 10:19:15;;;;;;;13.10;9.77;;;;;;;21.31;99.54;100862.94;5008041;28;20083;-80
2021/09/11 10:21:42;;;;;;;11.13;9.43;;;;;;;21.26;97.11;100865.00;5024533;28;20045;-80
2021/09/11 10:24:18;;;;;;;15.18;11.15;;;;;;;21.11;96.91;100872.22;5021216;28;20045;-81
2021/09/11 10:26:47;;;;;;;9.23;8.23;;;;;;;21.00;99.89;100869.28;5001931;28;20067;-80
2021/09/11 10:29:33;;;;;;;12.45;10.35;;;;;;;20.91;99.93;100862.66;5009086;28;20045;-80
2021/09/11 10:32:01;;;;;;;10.68;8.55;;;;;;;20.85;100.00;100879.16;5023137;28;20038;-81
2021/09/11 10:35:00;;;;;;;10.15;8.35;;;;;;;20.71;100.00;100858.50;5007461;28;20034;-81
2021/09/11 10:37:50;;;;;;;8.82;7.93;;;;;;;20.66;100.00;100860.56;5022044;28;20076;-82
2021/09/11 10:40:47;;;;;;;7.70;6.85;;;;;;;20.59;100.00;100853.81;4993102;28;20034;-81
2021/09/11 10:43:28;;;;;;;8.52;7.70;;;;;;;20.68;100.00;100857.78;4985664;28;20495;-82
2021/09/11 10:46:08;;;;;;;9.30;8.20;;;;;;;21.07;100.00;100858.09;4973694;28;20039;-80
2021/09/11 10:48:35;;;;;;;8.48;7.68;;;;;;;21.53;100.00;100843.66;5007275;28;20050;-82
2021/09/11 10:51:29;;;;;;;9.57;8.43;;;;;;;21.93;94.74;100844.66;4995052;28;20406;-81
2021/09/11 10:53:59;;;;;;;8.68;7.82;;;;;;;22.17;94.15;100840.38;4978976;28;20162;-81
2021/09/11 10:56:28;;;;;;;8.73;7.43;;;;;;;22.40;91.56;100836.19;5008020;28;20048;-81
2021/09/11 10:59:15;;;;;;;10.57;7.90;;;;;;;22.29;86.57;100846.81;4988750;28;20048;-80
2021/09/11 11:01:53;;;;;;;7.78;7.05;;;;;;;22.20;83.63;100850.09;4990520;28;20513;-82
2021/09/11 11:04:26;;;;;;;7.80;7.00;;;;;;;22.01;84.90;100842.31;5011041;28;20507;-81
2021/09/11 11:07:00;;;;;;;8.38;7.32;;;;;;;21.83;86.23;100848.91;5008485;28;20038;-82
2021/09/11 11:09:27;;;;;;;7.65;6.85;;;;;;;21.67;87.72;100853.53;4991756;28;20085;-82
2021/09/11 11:11:58;;;;;;;8.00;7.20;;;;;;;21.68;87.06;100845.34;5005806;28;20734;-82
2021/09/11 11:14:24;;;;;;;7.82;7.07;;;;;;;22.01;86.28;100836.06;4990621;28;20065;-82
2021/09/11 11:16:54;;;;;;;7.78;6.97;;;;;;;22.55;84.51;100833.44;5015119;28;20392;-82